Time;durP1;ratioP1;P1;durP2;ratioP2;P2;SDS_P1;SDS_P2;PMS_P1;PMS_P2;Temp;Humidity;BMP_temperature;BMP_pressure;BME280_temperature;BME280_humidity;BME280_pressure;Samples;Min_cycle;Max_cycle;Signal;HPM_P1;HPM_P2
2022/06/30 00:00:40;;;;;;;;;;;25.00;96.20;;;;;;5054863;28;19917;-61
2022/06/30 00:03:06;;;;;;;;;;;25.00;96.20;;;;;;5054873;28;20374;-61
2022/06/30 00:05:31;;;;;;;;;;;25.00;96.20;;;;;;5054497;28;19916;-62
2022/06/30 00:07:56;;;;;;;;;;;25.00;96.20;;;;;;5055210;28;20007;-62
2022/06/30 00:10:22;;;;;;;;;;;25.00;96.20;;;;;;5054680;28;20335;-62
2022/06/30 00:12:48;;;;;;;;;;;25.00;96.20;;;;;;5054672;28;19952;-62
2022/06/30 00:15:13;;;;;;;;;;;24.90;96.20;;;;;;5054598;28;19960;-60
2022/06/30 00:17:39;;;;;;;;;;;25.00;96.20;;;;;;5054550;28;19909;-60
2022/06/30 00:20:05;;;;;;;;;;;25.00;96.20;;;;;;5054163;28;19909;-59
2022/06/30 00:22:30;;;;;;;;;;;25.00;96.20;;;;;;5054538;28;20260;-60
2022/06/30 00:24:56;;;;;;;;;;;25.00;96.20;;;;;;5054416;28;20310;-60
2022/06/30 00:27:21;;;;;;;;;;;25.00;96.20;;;;;;5054117;28;19909;-61
2022/06/30 00:29:47;;;;;;;;;;;25.00;96.20;;;;;;5054103;28;19909;-61
2022/06/30 00:32:12;;;;;;;;;;;25.00;96.20;;;;;;5054363;28;19909;-60
2022/06/30 00:34:38;;;;;;;;;;;25.00;96.20;;;;;;5053947;28;19936;-61
2022/06/30 00:37:03;;;;;;;;;;;25.00;96.20;;;;;;5054583;28;20007;-61
2022/06/30 00:39:29;;;;;;;;;;;25.00;96.20;;;;;;5054500;28;19961;-61
2022/06/30 00:41:55;;;;;;;;;;;25.00;96.20;;;;;;5069731;28;19998;-61
2022/06/30 00:44:21;;;;;;;;;;;25.00;96.20;;;;;;5054270;28;20402;-61
2022/06/30 00:46:46;;;;;;;;;;;25.00;96.20;;;;;;5053839;28;19951;-60
2022/06/30 00:49:12;;;;;;;;;;;25.00;96.20;;;;;;5053983;28;19931;-61
2022/06/30 00:51:37;;;;;;;;;;;25.00;96.10;;;;;;5053715;28;20003;-61
2022/06/30 00:54:04;;;;;;;;;;;25.00;96.10;;;;;;5053906;28;19909;-61
2022/06/30 00:56:29;;;;;;;;;;;25.00;96.10;;;;;;5057439;28;19921;-61
2022/06/30 00:58:57;;;;;;;;;;;25.00;96.10;;;;;;5073589;28;19915;-60
2022/06/30 01:01:23;;;;;;;;;;;25.00;96.10;;;;;;5055848;28;19917;-60
2022/06/30 01:03:50;;;;;;;;;;;25.00;96.10;;;;;;5073858;28;19912;-59
2022/06/30 01:06:16;;;;;;;;;;;25.00;96.10;;;;;;5073492;28;20252;-59
2022/06/30 01:08:42;;;;;;;;;;;25.00;96.20;;;;;;5073383;28;20419;-61
2022/06/30 01:13:52;;;;;;;;;;;25.00;96.10;;;;;;5073750;28;19931;-60
2022/06/30 01:16:19;;;;;;;;;;;25.00;96.10;;;;;;5073822;28;19912;-59
2022/06/30 01:18:45;;;;;;;;;;;25.00;96.10;;;;;;5055823;28;19909;-60
2022/06/30 01:21:10;;;;;;;;;;;25.00;96.10;;;;;;5073711;28;19920;-60
2022/06/30 01:23:36;;;;;;;;;;;25.00;96.10;;;;;;5073786;28;20346;-60
2022/06/30 01:26:01;;;;;;;;;;;25.00;96.10;;;;;;5073824;28;19954;-60
2022/06/30 01:28:27;;;;;;;;;;;25.00;96.10;;;;;;5073793;28;20352;-60
2022/06/30 01:30:52;;;;;;;;;;;25.00;96.10;;;;;;5073787;28;19916;-60
2022/06/30 01:33:18;;;;;;;;;;;25.10;96.10;;;;;;5073709;28;19909;-60
2022/06/30 01:35:43;;;;;;;;;;;25.00;96.10;;;;;;5073675;28;19915;-60
2022/06/30 01:38:09;;;;;;;;;;;25.00;96.10;;;;;;5073676;28;20416;-60
2022/06/30 01:40:35;;;;;;;;;;;25.00;96.10;;;;;;5073565;28;19912;-61
2022/06/30 01:43:02;;;;;;;;;;;25.00;96.10;;;;;;5073596;28;20243;-60
2022/06/30 01:45:27;;;;;;;;;;;25.00;96.10;;;;;;5073605;28;19909;-60
2022/06/30 01:47:53;;;;;;;;;;;25.00;96.10;;;;;;5073509;28;19962;-60
2022/06/30 01:50:26;;;;;;;;;;;25.00;96.10;;;;;;5073625;28;19947;-60
2022/06/30 01:52:51;;;;;;;;;;;25.00;96.10;;;;;;5073471;28;19999;-59
2022/06/30 01:55:17;;;;;;;;;;;25.00;96.10;;;;;;5073275;28;19948;-60
2022/06/30 01:57:42;;;;;;;;;;;25.00;96.10;;;;;;5073538;28;19963;-60
2022/06/30 02:00:10;;;;;;;;;;;25.00;96.10;;;;;;5073406;28;19916;-60
2022/06/30 02:02:36;;;;;;;;;;;25.00;96.10;;;;;;5073340;28;19913;-60
2022/06/30 02:05:01;;;;;;;;;;;25.00;96.10;;;;;;5073353;28;20388;-60
2022/06/30 02:07:28;;;;;;;;;;;25.00;96.00;;;;;;5073482;28;19908;-60
2022/06/30 02:09:53;;;;;;;;;;;25.00;96.00;;;;;;5073616;28;20374;-60
2022/06/30 02:15:04;;;;;;;;;;;25.00;96.00;;;;;;5076687;28;19915;-60
2022/06/30 02:17:29;;;;;;;;;;;25.00;96.00;;;;;;5076752;28;20054;-60
2022/06/30 02:19:55;;;;;;;;;;;25.00;96.00;;;;;;5076869;28;19946;-60
2022/06/30 02:22:20;;;;;;;;;;;25.00;96.10;;;;;;5076819;28;20283;-60
2022/06/30 02:24:46;;;;;;;;;;;25.00;96.00;;;;;;5076467;28;19916;-60
2022/06/30 02:27:11;;;;;;;;;;;25.00;96.00;;;;;;5076415;28;19908;-60
2022/06/30 02:29:37;;;;;;;;;;;25.00;96.10;;;;;;5076414;28;19912;-60
2022/06/30 02:32:02;;;;;;;;;;;25.00;96.10;;;;;;5076625;28;19999;-60
2022/06/30 02:34:28;;;;;;;;;;;25.00;96.00;;;;;;5076601;28;19948;-60
2022/06/30 02:36:54;;;;;;;;;;;25.00;96.00;;;;;;5075343;28;19948;-60
2022/06/30 02:39:20;;;;;;;;;;;25.00;96.00;;;;;;5076499;28;19914;-60
2022/06/30 02:41:45;;;;;;;;;;;25.00;96.00;;;;;;5076375;28;19999;-60
2022/06/30 02:44:11;;;;;;;;;;;25.00;96.00;;;;;;5058533;28;19916;-60
2022/06/30 02:46:36;;;;;;;;;;;25.00;96.00;;;;;;5076438;28;19951;-60
2022/06/30 02:49:01;;;;;;;;;;;25.00;96.00;;;;;;5075951;28;19947;-60
2022/06/30 02:51:27;;;;;;;;;;;25.00;96.00;;;;;;5076242;28;19942;-60
2022/06/30 02:53:52;;;;;;;;;;;25.00;96.00;;;;;;5076520;28;19908;-60
2022/06/30 02:56:18;;;;;;;;;;;25.00;96.00;;;;;;5074661;28;19909;-60
2022/06/30 02:58:43;;;;;;;;;;;25.00;96.00;;;;;;5076240;28;19916;-60
2022/06/30 03:01:09;;;;;;;;;;;25.00;96.00;;;;;;5075753;28;19916;-59
2022/06/30 03:03:34;;;;;;;;;;;24.90;96.00;;;;;;5076060;28;19985;-60
2022/06/30 03:06:00;;;;;;;;;;;25.00;96.00;;;;;;5075920;28;19962;-60
2022/06/30 03:08:25;;;;;;;;;;;25.00;96.00;;;;;;5075949;28;19908;-60
2022/06/30 03:10:51;;;;;;;;;;;24.90;96.00;;;;;;5075973;28;20309;-60
2022/06/30 03:13:16;;;;;;;;;;;24.90;96.00;;;;;;5075999;28;19915;-59
2022/06/30 03:15:42;;;;;;;;;;;25.00;96.00;;;;;;5057760;28;19959;-60
2022/06/30 03:18:07;;;;;;;;;;;24.90;96.00;;;;;;5075461;28;19913;-60
2022/06/30 03:20:33;;;;;;;;;;;24.90;96.00;;;;;;5075524;28;19966;-59
2022/06/30 03:22:58;;;;;;;;;;;25.00;96.00;;;;;;5075384;28;19914;-60
2022/06/30 03:25:24;;;;;;;;;;;25.00;96.00;;;;;;5075150;28;19912;-59
2022/06/30 03:27:49;;;;;;;;;;;25.00;96.00;;;;;;5075149;28;19948;-60
2022/06/30 03:30:15;;;;;;;;;;;25.00;96.00;;;;;;5075145;28;20325;-59
2022/06/30 03:32:40;;;;;;;;;;;24.90;96.00;;;;;;5075004;28;19909;-60
2022/06/30 03:35:06;;;;;;;;;;;24.90;96.00;;;;;;5075306;28;20354;-59
2022/06/30 03:37:31;;;;;;;;;;;25.00;96.00;;;;;;5074864;28;20007;-60
2022/06/30 03:39:57;;;;;;;;;;;24.90;96.20;;;;;;5075206;28;19909;-60
2022/06/30 03:42:23;;;;;;;;;;;24.90;96.00;;;;;;5075232;28;19971;-59
2022/06/30 03:44:48;;;;;;;;;;;24.90;96.00;;;;;;5073895;28;19912;-60
2022/06/30 03:47:14;;;;;;;;;;;24.90;96.00;;;;;;5075407;28;19909;-59
2022/06/30 03:49:39;;;;;;;;;;;25.00;96.10;;;;;;5075097;28;19914;-60
2022/06/30 03:52:05;;;;;;;;;;;25.00;96.10;;;;;;5074679;28;20248;-61
2022/06/30 03:54:30;;;;;;;;;;;24.90;96.00;;;;;;5075043;28;20006;-61
2022/06/30 03:56:56;;;;;;;;;;;24.90;96.10;;;;;;5074716;28;19978;-61
2022/06/30 03:59:21;;;;;;;;;;;24.90;96.10;;;;;;5074926;28;19995;-60
2022/06/30 04:01:47;;;;;;;;;;;24.90;96.10;;;;;;5074773;28;20411;-61
2022/06/30 04:04:12;;;;;;;;;;;24.90;96.10;;;;;;5075101;28;19913;-60
2022/06/30 04:06:38;;;;;;;;;;;24.90;96.10;;;;;;5074692;28;20347;-60
2022/06/30 04:09:03;;;;;;;;;;;24.90;96.10;;;;;;5056760;28;19912;-61
2022/06/30 04:11:29;;;;;;;;;;;24.90;96.10;;;;;;5074597;28;19908;-60
2022/06/30 04:13:54;;;;;;;;;;;24.90;96.10;;;;;;5074471;28;19931;-60
2022/06/30 04:16:20;;;;;;;;;;;25.00;96.10;;;;;;5056510;28;19910;-60
2022/06/30 04:18:45;;;;;;;;;;;24.90;96.10;;;;;;5074213;28;19908;-61
2022/06/30 04:21:13;;;;;;;;;;;25.00;96.10;;;;;;5074350;28;19913;-61
2022/06/30 04:23:38;;;;;;;;;;;25.00;96.00;;;;;;5074054;28;20406;-61
2022/06/30 04:26:04;;;;;;;;;;;25.00;96.00;;;;;;5074502;28;19954;-61
2022/06/30 04:28:29;;;;;;;;;;;25.00;96.00;;;;;;5074115;28;19909;-61
2022/06/30 04:33:39;;;;;;;;;;;25.00;96.00;;;;;;5073439;28;19967;-60
2022/06/30 04:36:05;;;;;;;;;;;25.10;95.90;;;;;;5072965;28;19951;-61
2022/06/30 04:38:30;;;;;;;;;;;25.10;95.90;;;;;;5073844;28;19916;-61
2022/06/30 04:43:39;;;;;;;;;;;25.10;95.90;;;;;;5073768;28;20374;-60
2022/06/30 04:46:05;;;;;;;;;;;25.10;95.80;;;;;;5073746;28;19909;-61
2022/06/30 04:48:30;;;;;;;;;;;25.10;95.80;;;;;;5073757;28;19964;-60
2022/06/30 04:50:56;;;;;;;;;;;25.10;95.90;;;;;;5056021;28;20271;-60
2022/06/30 04:53:21;;;;;;;;;;;25.10;95.80;;;;;;5074022;28;20007;-60
2022/06/30 04:55:47;;;;;;;;;;;25.20;95.80;;;;;;5073824;28;19948;-60
2022/06/30 04:58:12;;;;;;;;;;;25.20;95.80;;;;;;5074073;28;20031;-60
2022/06/30 05:00:38;;;;;;;;;;;25.20;95.80;;;;;;5073233;28;19974;-61
2022/06/30 05:03:03;;;;;;;;;;;25.20;95.80;;;;;;5073614;28;19912;-60
2022/06/30 05:05:29;;;;;;;;;;;25.20;95.70;;;;;;5073865;28;19908;-60
2022/06/30 05:07:54;;;;;;;;;;;25.20;95.70;;;;;;5073356;28;19954;-60
2022/06/30 05:10:20;;;;;;;;;;;25.20;95.70;;;;;;5073799;28;20007;-60
2022/06/30 05:12:45;;;;;;;;;;;25.20;95.70;;;;;;5073509;28;20279;-61
2022/06/30 05:15:11;;;;;;;;;;;25.20;95.70;;;;;;5073747;28;19916;-61
2022/06/30 05:17:36;;;;;;;;;;;25.30;95.70;;;;;;5072321;28;19983;-60
2022/06/30 05:20:02;;;;;;;;;;;25.20;95.70;;;;;;5073047;28;20260;-61
2022/06/30 05:22:28;;;;;;;;;;;25.30;95.70;;;;;;5073566;28;19916;-60
2022/06/30 05:27:37;;;;;;;;;;;25.30;95.70;;;;;;5073396;28;20317;-59
2022/06/30 05:30:03;;;;;;;;;;;25.30;95.70;;;;;;5073796;28;19909;-60
2022/06/30 05:32:29;;;;;;;;;;;25.30;95.70;;;;;;5073469;28;19908;-60
2022/06/30 05:34:54;;;;;;;;;;;25.30;95.70;;;;;;5073582;28;19944;-60
2022/06/30 05:37:19;;;;;;;;;;;25.30;95.60;;;;;;5073211;28;19912;-60
2022/06/30 05:39:45;;;;;;;;;;;25.30;95.60;;;;;;5072929;28;19999;-61
2022/06/30 05:42:10;;;;;;;;;;;25.30;95.60;;;;;;5073191;28;19919;-60
2022/06/30 05:44:36;;;;;;;;;;;25.30;95.60;;;;;;5072790;28;20003;-61
2022/06/30 05:47:01;;;;;;;;;;;25.30;95.60;;;;;;5076531;28;20256;-61
2022/06/30 05:49:27;;;;;;;;;;;25.30;95.60;;;;;;5076554;28;19909;-61
2022/06/30 05:51:53;;;;;;;;;;;25.30;95.60;;;;;;5076799;28;19908;-61
2022/06/30 05:54:18;;;;;;;;;;;25.30;95.60;;;;;;5076727;28;19913;-60
2022/06/30 05:56:44;;;;;;;;;;;25.30;95.60;;;;;;5076470;28;19963;-61
2022/06/30 05:59:10;;;;;;;;;;;25.30;95.80;;;;;;5076619;28;19909;-60
2022/06/30 06:01:35;;;;;;;;;;;25.30;95.60;;;;;;5076181;28;19912;-61
2022/06/30 06:04:01;;;;;;;;;;;25.30;95.80;;;;;;5076378;28;19930;-61
2022/06/30 06:06:26;;;;;;;;;;;25.30;95.60;;;;;;5076575;28;19940;-59
2022/06/30 06:08:52;;;;;;;;;;;25.30;95.60;;;;;;5076572;28;19908;-60
2022/06/30 06:11:17;;;;;;;;;;;25.30;95.50;;;;;;5076362;28;20378;-60
2022/06/30 06:13:43;;;;;;;;;;;25.30;95.50;;;;;;5076619;28;20303;-61
2022/06/30 06:16:08;;;;;;;;;;;25.40;95.60;;;;;;5076390;28;19908;-60
2022/06/30 06:18:34;;;;;;;;;;;25.40;95.60;;;;;;5076531;28;19908;-60
2022/06/30 06:21:00;;;;;;;;;;;25.30;95.50;;;;;;5075177;28;19963;-61
2022/06/30 06:23:25;;;;;;;;;;;25.30;95.60;;;;;;5076088;28;19913;-60
2022/06/30 06:25:51;;;;;;;;;;;25.30;95.60;;;;;;5058383;28;19908;-61
2022/06/30 06:31:01;;;;;;;;;;;25.30;95.60;;;;;;5076119;28;19914;-61
2022/06/30 06:33:26;;;;;;;;;;;25.40;95.60;;;;;;5075011;28;20262;-61
2022/06/30 06:35:52;;;;;;;;;;;25.30;95.60;;;;;;5075946;28;19962;-60
2022/06/30 06:38:17;;;;;;;;;;;25.30;95.60;;;;;;5075729;28;19912;-60
2022/06/30 06:40:43;;;;;;;;;;;25.30;95.60;;;;;;5075906;28;19912;-61
2022/06/30 06:43:08;;;;;;;;;;;25.30;95.60;;;;;;5074742;28;19923;-60
2022/06/30 06:45:33;;;;;;;;;;;25.30;95.50;;;;;;5075619;28;19952;-61
2022/06/30 06:47:59;;;;;;;;;;;25.30;95.60;;;;;;5075860;28;19909;-61
2022/06/30 06:50:25;;;;;;;;;;;25.30;95.60;;;;;;5076309;28;19912;-60
2022/06/30 06:52:50;;;;;;;;;;;25.30;95.60;;;;;;5075857;28;20244;-61
2022/06/30 06:55:17;;;;;;;;;;;25.30;95.60;;;;;;5075852;28;20011;-61
2022/06/30 06:57:43;;;;;;;;;;;25.30;95.60;;;;;;5075124;28;20359;-61
2022/06/30 07:00:10;;;;;;;;;;;25.30;95.60;;;;;;5057706;28;19912;-61
2022/06/30 07:02:35;;;;;;;;;;;25.30;95.60;;;;;;5075631;28;19963;-61
2022/06/30 07:05:01;;;;;;;;;;;25.30;95.60;;;;;;5057682;28;19913;-60
2022/06/30 07:07:26;;;;;;;;;;;25.30;95.60;;;;;;5075519;28;19988;-60
2022/06/30 07:09:52;;;;;;;;;;;25.30;95.60;;;;;;5075347;28;20314;-61
2022/06/30 07:12:17;;;;;;;;;;;25.30;95.50;;;;;;5075542;28;19935;-61
2022/06/30 07:14:43;;;;;;;;;;;25.30;95.60;;;;;;5075484;28;19935;-61
2022/06/30 07:17:09;;;;;;;;;;;25.30;95.50;;;;;;5074113;28;20369;-60
2022/06/30 07:19:34;;;;;;;;;;;25.30;95.50;;;;;;5075200;28;19908;-60
2022/06/30 07:22:00;;;;;;;;;;;25.30;95.50;;;;;;5075360;28;19966;-60
2022/06/30 07:24:25;;;;;;;;;;;25.30;95.60;;;;;;5074025;28;20124;-60
2022/06/30 07:26:51;;;;;;;;;;;25.30;95.60;;;;;;5075242;28;19999;-61
2022/06/30 07:29:16;;;;;;;;;;;25.30;95.60;;;;;;5075468;28;19916;-61
2022/06/30 07:31:42;;;;;;;;;;;25.30;95.60;;;;;;5074858;28;20407;-61
2022/06/30 07:34:08;;;;;;;;;;;25.30;95.60;;;;;;5075110;28;19912;-61
2022/06/30 07:36:33;;;;;;;;;;;25.30;95.60;;;;;;5074718;28;19912;-60
2022/06/30 07:38:59;;;;;;;;;;;25.30;95.50;;;;;;5074991;28;19915;-60
2022/06/30 07:41:28;;;;;;;;;;;25.30;95.50;;;;;;5074532;28;19912;-60
2022/06/30 07:43:53;;;;;;;;;;;25.30;95.60;;;;;;5074473;28;19935;-61
2022/06/30 07:46:19;;;;;;;;;;;25.30;95.60;;;;;;5074563;28;19908;-60
2022/06/30 07:48:45;;;;;;;;;;;25.30;95.60;;;;;;5074451;28;19916;-60
2022/06/30 07:51:10;;;;;;;;;;;25.30;95.60;;;;;;5074315;28;19908;-61
2022/06/30 07:53:36;;;;;;;;;;;25.30;95.60;;;;;;5073452;28;20045;-61
2022/06/30 07:56:02;;;;;;;;;;;25.30;95.60;;;;;;5074887;28;20019;-60
2022/06/30 07:58:27;;;;;;;;;;;25.30;95.60;;;;;;5074627;28;19970;-60
2022/06/30 08:00:53;;;;;;;;;;;25.30;95.60;;;;;;5073179;28;19916;-61
2022/06/30 08:03:20;;;;;;;;;;;25.30;95.50;;;;;;5074189;28;20398;-59
2022/06/30 08:05:46;;;;;;;;;;;25.30;95.50;;;;;;5074215;28;19915;-59
2022/06/30 08:08:11;;;;;;;;;;;25.30;95.50;;;;;;5073324;28;20301;-61
2022/06/30 08:10:37;;;;;;;;;;;25.40;95.60;;;;;;5056222;28;20003;-60
2022/06/30 08:13:02;;;;;;;;;;;25.30;95.50;;;;;;5074324;28;19908;-61
2022/06/30 08:15:28;;;;;;;;;;;25.30;95.50;;;;;;5074167;28;19912;-61
2022/06/30 08:17:53;;;;;;;;;;;25.30;95.50;;;;;;5074124;28;20326;-60
2022/06/30 08:20:19;;;;;;;;;;;25.30;95.50;;;;;;5074013;28;19916;-61
2022/06/30 08:22:44;;;;;;;;;;;25.40;95.60;;;;;;5073970;28;19952;-61
2022/06/30 08:25:10;;;;;;;;;;;25.40;95.60;;;;;;5073830;28;20205;-61
2022/06/30 08:27:35;;;;;;;;;;;25.40;95.60;;;;;;5073708;28;19950;-62
2022/06/30 08:30:01;;;;;;;;;;;25.30;95.50;;;;;;5073928;28;19915;-61
2022/06/30 08:32:26;;;;;;;;;;;25.40;95.60;;;;;;5074105;28;20383;-61
2022/06/30 08:34:52;;;;;;;;;;;25.40;95.60;;;;;;5073469;28;20279;-59
2022/06/30 08:37:17;;;;;;;;;;;25.40;95.50;;;;;;5073709;28;19919;-61
2022/06/30 08:42:27;;;;;;;;;;;25.30;95.50;;;;;;5073558;28;19988;-60
2022/06/30 08:47:38;;;;;;;;;;;25.40;95.50;;;;;;5073937;28;19916;-60
2022/06/30 08:50:04;;;;;;;;;;;25.30;95.50;;;;;;5073877;28;19908;-60
2022/06/30 08:52:31;;;;;;;;;;;25.40;95.60;;;;;;5073796;28;19916;-60
2022/06/30 08:54:57;;;;;;;;;;;25.40;95.60;;;;;;5073666;28;20259;-60
2022/06/30 08:57:24;;;;;;;;;;;25.30;95.50;;;;;;5073353;28;19921;-60
2022/06/30 08:59:51;;;;;;;;;;;25.40;95.60;;;;;;5073796;28;19912;-60
2022/06/30 09:02:18;;;;;;;;;;;25.40;95.60;;;;;;5073593;28;20005;-60
2022/06/30 09:04:43;;;;;;;;;;;25.30;95.50;;;;;;5073797;28;19961;-61
2022/06/30 09:07:10;;;;;;;;;;;25.40;95.60;;;;;;5055240;28;20004;-59
2022/06/30 09:09:35;;;;;;;;;;;25.40;95.60;;;;;;5055903;28;19916;-61
2022/06/30 09:12:00;;;;;;;;;;;25.40;95.60;;;;;;5073598;28;19909;-60
2022/06/30 09:14:40;;;;;;;;;;;25.30;95.60;;;;;;5055561;28;20347;-60
2022/06/30 09:17:07;;;;;;;;;;;25.30;95.60;;;;;;5055775;28;20280;-61
2022/06/30 09:19:33;;;;;;;;;;;25.40;95.60;;;;;;5073293;28;19909;-60
2022/06/30 09:22:17;;;;;;;;;;;25.40;95.60;;;;;;5077633;28;19916;-60
2022/06/30 09:24:42;;;;;;;;;;;25.40;95.60;;;;;;5077738;28;20412;-61
2022/06/30 09:27:19;;;;;;;;;;;25.40;95.60;;;;;;5077296;28;19912;-61
2022/06/30 09:29:55;;;;;;;;;;;25.40;95.60;;;;;;5077373;28;19955;-61
2022/06/30 09:32:21;;;;;;;;;;;25.30;95.60;;;;;;5077351;28;19908;-61
2022/06/30 09:34:47;;;;;;;;;;;25.30;95.60;;;;;;5077518;28;20355;-61
2022/06/30 09:37:22;;;;;;;;;;;25.40;95.60;;;;;;5077232;28;19909;-61
2022/06/30 09:39:49;;;;;;;;;;;25.30;95.60;;;;;;5075997;28;19908;-59
2022/06/30 09:42:14;;;;;;;;;;;25.40;95.60;;;;;;5059318;28;20007;-59
2022/06/30 09:44:40;;;;;;;;;;;25.30;95.60;;;;;;5075984;28;20424;-59
2022/06/30 09:47:07;;;;;;;;;;;25.40;95.60;;;;;;5077162;28;20324;-60
2022/06/30 09:49:44;;;;;;;;;;;25.30;95.60;;;;;;5076599;28;19963;-60
2022/06/30 09:52:19;;;;;;;;;;;25.40;95.60;;;;;;5076951;28;19931;-61
2022/06/30 09:54:54;;;;;;;;;;;25.40;95.60;;;;;;5076883;28;19908;-61
2022/06/30 09:57:20;;;;;;;;;;;25.40;95.60;;;;;;5076628;28;19920;-60
2022/06/30 09:59:46;;;;;;;;;;;25.30;95.60;;;;;;5076801;28;19931;-59
2022/06/30 10:02:12;;;;;;;;;;;25.30;95.60;;;;;;5076827;28;20351;-61
2022/06/30 10:04:54;;;;;;;;;;;25.40;95.60;;;;;;5076781;28;19966;-60
2022/06/30 10:07:23;;;;;;;;;;;25.40;95.60;;;;;;5058804;28;19916;-61
2022/06/30 10:09:49;;;;;;;;;;;25.40;95.60;;;;;;5076551;28;19913;-60
2022/06/30 10:12:16;;;;;;;;;;;25.40;95.60;;;;;;5076896;28;19909;-60
2022/06/30 10:14:42;;;;;;;;;;;25.30;95.60;;;;;;5076401;28;19944;-61
2022/06/30 10:17:08;;;;;;;;;;;25.30;95.60;;;;;;5076293;28;19913;-61
2022/06/30 10:19:34;;;;;;;;;;;25.40;95.60;;;;;;5076333;28;20264;-60
2022/06/30 10:22:00;;;;;;;;;;;25.40;95.60;;;;;;5076172;28;19965;-61
2022/06/30 10:24:25;;;;;;;;;;;25.40;95.60;;;;;;5076254;28;20050;-60
2022/06/30 10:29:35;;;;;;;;;;;25.40;95.60;;;;;;5076094;28;19954;-61
2022/06/30 10:32:21;;;;;;;;;;;25.40;95.60;;;;;;5075441;28;20314;-60
2022/06/30 10:34:54;;;;;;;;;;;25.40;95.60;;;;;;5027499;28;20309;-60
2022/06/30 10:37:26;;;;;;;;;;;25.40;95.60;;;;;;5075954;28;19927;-61
2022/06/30 10:40:09;;;;;;;;;;;25.40;95.60;;;;;;5075953;28;19908;-61
2022/06/30 10:42:46;;;;;;;;;;;25.40;95.60;;;;;;5076021;28;19913;-61
2022/06/30 10:45:26;;;;;;;;;;;25.40;95.60;;;;;;5075711;28;19912;-61
2022/06/30 10:47:55;;;;;;;;;;;25.40;95.60;;;;;;5075995;28;19909;-61
2022/06/30 10:50:34;;;;;;;;;;;25.40;95.60;;;;;;5075667;28;20287;-60
2022/06/30 10:53:00;;;;;;;;;;;25.40;95.60;;;;;;5075945;28;19916;-59
2022/06/30 10:55:26;;;;;;;;;;;25.40;95.60;;;;;;5075459;28;19966;-59
2022/06/30 10:57:58;;;;;;;;;;;25.40;95.60;;;;;;5075108;28;19920;-60
2022/06/30 11:00:42;;;;;;;;;;;25.40;95.60;;;;;;5076020;28;19916;-59
2022/06/30 11:03:07;;;;;;;;;;;25.40;95.60;;;;;;5075742;28;20023;-60
2022/06/30 11:05:33;;;;;;;;;;;25.40;95.60;;;;;;5075761;28;19940;-61
2022/06/30 11:08:31;;;;;;;;;;;25.40;95.60;;;;;;5075639;28;19915;-60
2022/06/30 11:10:56;;;;;;;;;;;25.40;95.60;;;;;;5075085;28;19908;-61
2022/06/30 11:13:27;;;;;;;;;;;25.40;95.60;;;;;;5075232;28;20369;-60
2022/06/30 11:15:53;;;;;;;;;;;25.40;95.60;;;;;;5075147;28;19948;-60
2022/06/30 11:18:19;;;;;;;;;;;25.40;95.60;;;;;;5075417;28;19912;-60
2022/06/30 11:20:44;;;;;;;;;;;25.40;95.60;;;;;;5075005;28;19954;-61
2022/06/30 11:23:10;;;;;;;;;;;25.40;95.60;;;;;;5075097;28;19912;-59
2022/06/30 11:28:20;;;;;;;;;;;25.40;95.60;;;;;;5074900;28;19915;-61
2022/06/30 11:30:46;;;;;;;;;;;25.40;95.50;;;;;;5075265;28;19908;-61
2022/06/30 11:33:13;;;;;;;;;;;25.40;95.50;;;;;;5075135;28;19908;-61
2022/06/30 11:35:38;;;;;;;;;;;25.40;95.50;;;;;;5074665;28;19966;-62
2022/06/30 11:38:05;;;;;;;;;;;25.40;95.50;;;;;;5075050;28;19909;-60
2022/06/30 11:40:32;;;;;;;;;;;25.40;95.50;;;;;;5074715;28;20411;-60
2022/06/30 11:42:58;;;;;;;;;;;25.40;95.50;;;;;;5074542;28;20391;-61
2022/06/30 11:45:23;;;;;;;;;;;25.40;95.50;;;;;;5074961;28;19962;-61
2022/06/30 11:47:57;;;;;;;;;;;25.40;95.50;;;;;;5074761;28;19954;-62
2022/06/30 11:50:23;;;;;;;;;;;25.40;95.50;;;;;;5074902;28;19912;-61
2022/06/30 11:52:50;;;;;;;;;;;25.40;95.60;;;;;;5074851;28;19916;-61
2022/06/30 11:55:17;;;;;;;;;;;25.40;95.50;;;;;;5056786;28;20339;-62
2022/06/30 11:57:44;;;;;;;;;;;25.40;95.80;;;;;;5074668;28;19927;-60
2022/06/30 12:00:14;;;;;;;;;;;25.40;95.50;;;;;;5074680;28;19916;-61
2022/06/30 12:02:40;;;;;;;;;;;25.40;95.50;;;;;;5073320;28;19990;-60
2022/06/30 12:05:09;;;;;;;;;;;25.40;95.50;;;;;;5074245;28;19920;-60
2022/06/30 12:07:35;;;;;;;;;;;25.40;95.50;;;;;;5072744;28;19930;-60
2022/06/30 12:10:01;;;;;;;;;;;25.40;95.50;;;;;;5073989;28;19915;-61
2022/06/30 12:12:27;;;;;;;;;;;25.40;95.50;;;;;;5074442;28;20254;-60
2022/06/30 12:15:04;;;;;;;;;;;25.40;95.50;;;;;;5074197;28;20412;-61
2022/06/30 12:17:34;;;;;;;;;;;25.40;95.50;;;;;;5074821;28;19961;-60
2022/06/30 12:20:00;;;;;;;;;;;25.40;95.50;;;;;;5073966;28;20313;-61
2022/06/30 12:22:25;;;;;;;;;;;25.40;95.50;;;;;;5074168;28;19989;-60
2022/06/30 12:24:52;;;;;;;;;;;25.40;95.50;;;;;;5074198;28;19959;-60
2022/06/30 12:27:24;;;;;;;;;;;25.40;95.50;;;;;;5073820;28;20359;-61
2022/06/30 12:29:55;;;;;;;;;;;25.40;95.50;;;;;;5073904;28;19909;-59
2022/06/30 12:32:20;;;;;;;;;;;25.50;95.60;;;;;;5073696;28;19908;-61
2022/06/30 12:34:50;;;;;;;;;;;25.40;95.50;;;;;;5073713;28;19953;-60
2022/06/30 12:37:15;;;;;;;;;;;25.50;95.60;;;;;;5073962;28;19909;-60
2022/06/30 12:39:45;;;;;;;;;;;25.40;95.50;;;;;;5073683;28;19909;-60
2022/06/30 12:42:11;;;;;;;;;;;25.40;95.50;;;;;;5056069;28;20065;-61
2022/06/30 12:44:37;;;;;;;;;;;25.40;95.50;;;;;;5073666;28;20381;-60
2022/06/30 12:47:07;;;;;;;;;;;25.40;95.50;;;;;;5073915;28;19951;-60
2022/06/30 12:49:33;;;;;;;;;;;25.40;95.50;;;;;;5073528;28;19913;-59
2022/06/30 12:51:58;;;;;;;;;;;25.40;95.50;;;;;;5072454;28;19913;-61
2022/06/30 12:54:25;;;;;;;;;;;25.40;95.50;;;;;;5073471;28;19909;-61
2022/06/30 12:56:50;;;;;;;;;;;25.50;95.60;;;;;;5073780;28;19920;-61
2022/06/30 12:59:20;;;;;;;;;;;25.40;95.60;;;;;;5055847;28;20365;-60
2022/06/30 13:01:56;;;;;;;;;;;25.40;95.50;;;;;;5073192;28;20304;-60
2022/06/30 13:04:25;;;;;;;;;;;25.40;95.50;;;;;;5073018;28;19920;-60
2022/06/30 13:06:52;;;;;;;;;;;25.50;95.60;;;;;;5073059;28;19928;-60
2022/06/30 13:09:21;;;;;;;;;;;25.40;95.50;;;;;;5071887;28;19912;-60
2022/06/30 13:11:48;;;;;;;;;;;25.40;95.50;;;;;;5072404;28;19908;-60
2022/06/30 13:14:14;;;;;;;;;;;25.40;95.50;;;;;;5073925;28;19915;-59
2022/06/30 13:16:40;;;;;;;;;;;25.40;95.50;;;;;;5073426;28;19915;-61
2022/06/30 13:19:07;;;;;;;;;;;25.40;95.50;;;;;;5072183;28;19909;-61
2022/06/30 13:21:33;;;;;;;;;;;25.40;95.50;;;;;;5071969;28;20274;-59
2022/06/30 13:23:58;;;;;;;;;;;25.50;95.60;;;;;;5072013;28;19924;-60
2022/06/30 13:26:24;;;;;;;;;;;25.50;95.60;;;;;;5073878;28;19912;-61
2022/06/30 13:28:50;;;;;;;;;;;25.50;95.60;;;;;;5073178;28;19908;-60
2022/06/30 13:31:15;;;;;;;;;;;25.50;95.60;;;;;;5073066;28;20362;-60
2022/06/30 13:33:41;;;;;;;;;;;25.50;95.60;;;;;;5072991;28;20346;-60
2022/06/30 13:36:07;;;;;;;;;;;25.50;95.60;;;;;;5072953;28;19916;-60
2022/06/30 13:38:33;;;;;;;;;;;25.50;95.60;;;;;;5072856;28;19909;-60
2022/06/30 13:40:59;;;;;;;;;;;25.50;95.60;;;;;;5073102;28;19916;-60
2022/06/30 13:43:25;;;;;;;;;;;25.50;95.60;;;;;;5072965;28;19912;-61
2022/06/30 13:45:50;;;;;;;;;;;25.50;95.60;;;;;;5072963;28;20000;-59
2022/06/30 13:48:16;;;;;;;;;;;25.50;95.60;;;;;;5071983;28;19936;-61
2022/06/30 13:50:41;;;;;;;;;;;25.50;95.60;;;;;;5072750;28;19916;-61
2022/06/30 13:53:07;;;;;;;;;;;25.50;95.60;;;;;;5073018;28;19912;-60
2022/06/30 13:55:33;;;;;;;;;;;25.50;95.60;;;;;;5072723;28;20412;-60
2022/06/30 13:57:59;;;;;;;;;;;25.50;95.60;;;;;;5072584;28;20325;-59
2022/06/30 14:00:25;;;;;;;;;;;25.40;95.50;;;;;;5073231;28;19908;-60
2022/06/30 14:02:50;;;;;;;;;;;25.50;95.60;;;;;;5072719;28;19920;-59
2022/06/30 14:05:16;;;;;;;;;;;25.50;95.60;;;;;;5072999;28;19958;-59
2022/06/30 14:07:41;;;;;;;;;;;25.50;95.60;;;;;;5075442;28;20248;-61
2022/06/30 14:10:08;;;;;;;;;;;25.50;95.60;;;;;;5076598;28;20367;-60
2022/06/30 14:12:33;;;;;;;;;;;25.50;95.60;;;;;;5076409;28;20238;-60
2022/06/30 14:14:59;;;;;;;;;;;25.50;95.60;;;;;;5076503;28;20011;-60
2022/06/30 14:17:25;;;;;;;;;;;25.50;95.60;;;;;;5058683;28;19952;-60
2022/06/30 14:19:51;;;;;;;;;;;25.50;95.60;;;;;;5076865;28;19955;-61
2022/06/30 14:22:16;;;;;;;;;;;25.50;95.80;;;;;;5076037;28;19912;-60
2022/06/30 14:24:42;;;;;;;;;;;25.50;95.60;;;;;;5075002;28;20406;-60
2022/06/30 14:27:08;;;;;;;;;;;25.50;95.60;;;;;;5076194;28;20330;-60
2022/06/30 14:29:33;;;;;;;;;;;25.50;95.60;;;;;;5076123;28;19909;-60
2022/06/30 14:31:59;;;;;;;;;;;25.50;95.60;;;;;;5076226;28;19908;-60
2022/06/30 14:34:25;;;;;;;;;;;25.50;95.60;;;;;;5076117;28;19909;-59
2022/06/30 14:36:50;;;;;;;;;;;25.50;95.60;;;;;;5075883;28;19912;-60
2022/06/30 14:39:16;;;;;;;;;;;25.50;95.60;;;;;;5076098;28;19908;-61